aviador You're here:

PAWI Decoded Metar

WAINWRIGHT in AK, USA
Report Time2018-05-25 19:53:00
UTC Time2018-05-25 20:41:35
Flight Rules mvfr MVFR
Wind060° at 17 kt
W.Decomp.*RWY 05: 16.9 kt HW 2.1 kt LCW
W.Rank060° ranks 1
Current wind is above 060° avg. (12.2)
Visibility9999 m
Phenomena:N/A
Clouds:Overcast 011 Hf
Expected CloudBase > 800 ft AGL from Temp-Dew spread
Ceiling1,100 ft
Temp-3°C (ISA -18)
Dew Point-5°C (86% RH)
AAT-11.7°C
QNH1015 hPa
Density Alt-2,116 ft
Elevation89 ft
Report Wrong Elevation
Raw Report
PAWI 251953Z AUTO 06017KT 10SM OVC011 M03/M05 A2996 RMK AO2
SNB31E42 SLP147 P0000 T10281050 TSNO=

Extra information for PAWI:More info

Metar Taf Metar & Taf Last 4 Metars F.Rules Stats Wind Profile Meteogram Temp Stats Airport Information Weather charts Add Link Nearby VenuesMetar ALERT Operation Metar Decoded Social comments

AIRNAV info for PAWI